createdAt,value
2019-04-22T17:34:32.022Z,19.65
2019-04-22T17:37:04.054Z,18.23
2019-04-22T17:39:45.213Z,17.93
2019-04-22T17:42:25.267Z,18.20
2019-04-22T17:45:04.726Z,18.70
2019-04-22T17:47:23.438Z,18.90
2019-04-22T17:50:08.604Z,17.97
2019-04-22T17:52:37.555Z,18.67
2019-04-22T17:55:07.591Z,18.60
2019-04-22T17:57:33.047Z,18.10
2019-04-22T18:00:08.781Z,18.77
2019-04-22T18:02:32.954Z,18.37
2019-04-22T18:04:56.271Z,18.03
2019-04-22T18:07:44.479Z,18.43
2019-04-22T18:12:50.165Z,18.27
2019-04-22T18:15:29.365Z,19.17
2019-04-22T18:17:58.843Z,22.73
2019-04-22T18:20:10.283Z,26.37
2019-04-22T18:22:39.354Z,27.70
2019-04-22T18:25:12.905Z,26.17
2019-04-22T18:27:55.168Z,24.53
2019-04-22T18:30:17.031Z,21.67
2019-04-22T18:32:50.509Z,20.63
2019-04-22T18:35:26.922Z,17.83
2019-04-22T18:38:03.285Z,17.27
2019-04-22T18:40:31.074Z,16.53
2019-04-22T18:43:06.537Z,16.77
2019-04-22T18:47:59.838Z,15.93
2019-04-22T18:50:52.916Z,15.70
2019-04-22T18:53:27.380Z,15.83
2019-04-22T18:56:03.761Z,15.97
2019-04-22T18:58:33.237Z,16.17
2019-04-22T19:00:48.886Z,15.57
2019-04-22T19:03:25.780Z,15.50
2019-04-22T19:06:24.773Z,15.60
2019-04-22T19:08:45.565Z,15.10
2019-04-22T19:11:30.146Z,15.87
2019-04-22T19:19:08.055Z,15.27
2019-04-22T19:21:14.977Z,15.50
2019-04-22T19:23:49.137Z,15.27
2019-04-22T19:26:33.311Z,15.10
2019-04-22T19:28:55.579Z,16.03
2019-04-22T19:31:27.092Z,15.87
2019-04-22T19:34:00.837Z,15.30
2019-04-22T19:36:25.580Z,15.77
2019-04-22T19:38:52.548Z,15.73
2019-04-22T19:41:30.476Z,14.83
2019-04-22T19:44:05.519Z,14.87
2019-04-22T19:46:28.606Z,15.53
2019-04-22T19:49:06.925Z,16.10
2019-04-22T19:54:04.601Z,16.20
2019-04-22T19:56:29.601Z,16.23
2019-04-22T19:59:02.152Z,16.20
2019-04-22T20:01:44.101Z,15.57
2019-04-22T20:06:56.334Z,17.10
2019-04-22T20:09:35.116Z,16.10
2019-04-22T20:12:00.587Z,16.33
2019-04-22T20:14:35.813Z,16.10
2019-04-22T20:17:00.662Z,16.67
2019-04-22T20:19:46.297Z,17.23
2019-04-22T20:22:10.811Z,16.83
2019-04-22T20:24:26.517Z,16.77
2019-04-22T20:27:13.751Z,18.00
2019-04-22T20:29:43.380Z,17.00
2019-04-22T20:32:10.805Z,16.87
2019-04-22T20:34:51.131Z,16.83
2019-04-22T20:37:22.566Z,16.63
2019-04-22T20:39:46.822Z,16.70
2019-04-22T20:42:32.562Z,17.60
2019-04-22T20:44:52.035Z,17.33
2019-04-22T20:47:20.591Z,16.83
2019-04-22T20:49:54.686Z,16.20
2019-04-22T20:54:49.496Z,16.37
2019-04-22T20:57:24.101Z,15.53
2019-04-22T20:59:54.173Z,16.90
2019-04-22T21:02:24.111Z,16.50
2019-04-22T21:04:48.032Z,17.37
2019-04-22T21:07:26.621Z,16.80
2019-04-22T21:09:59.071Z,16.60
2019-04-22T21:12:22.446Z,16.40
2019-04-22T21:15:10.716Z,17.07
2019-04-22T21:17:35.124Z,16.73
2019-04-22T21:20:14.353Z,17.40
2019-04-22T21:22:41.751Z,16.53
2019-04-22T21:25:05.888Z,16.00
2019-04-22T21:27:45.347Z,16.57
2019-04-22T21:30:03.370Z,16.37
2019-04-22T21:32:38.836Z,15.90
2019-04-22T21:35:21.774Z,16.57
2019-04-22T21:37:57.129Z,16.80
2019-04-22T21:40:20.076Z,16.10
2019-04-22T21:42:54.816Z,16.07
2019-04-22T21:45:15.156Z,16.13
2019-04-22T21:47:57.631Z,16.00
2019-04-22T21:50:39.468Z,16.20
2019-04-22T21:53:00.822Z,15.40
2019-04-22T21:55:29.817Z,15.33
2019-04-22T21:58:08.017Z,15.90
2019-04-22T22:00:48.355Z,15.60
2019-04-22T22:03:13.050Z,15.20
2019-04-22T22:05:29.979Z,15.30
2019-04-22T22:08:02.854Z,15.37
2019-04-22T22:10:45.283Z,16.07
2019-04-22T22:13:12.377Z,15.73
2019-04-22T22:15:43.474Z,15.73
2019-04-22T22:18:12.301Z,15.67
2019-04-22T22:20:59.735Z,15.33
2019-04-22T22:25:43.744Z,14.67
2019-04-22T22:28:36.124Z,14.30
2019-04-22T22:30:54.747Z,14.40
2019-04-22T22:33:24.244Z,14.27
2019-04-22T22:35:57.415Z,13.93
2019-04-22T22:38:24.352Z,13.00
2019-04-22T22:40:36.668Z,13.97
2019-04-22T22:43:18.751Z,14.57
2019-04-22T22:45:44.969Z,14.57
2019-04-22T22:48:36.803Z,14.13
2019-04-22T22:50:58.765Z,14.03
2019-04-22T22:56:05.119Z,14.33
2019-04-22T22:58:34.330Z,14.43
2019-04-22T23:00:57.909Z,13.97
2019-04-22T23:06:15.766Z,14.27
2019-04-22T23:08:38.544Z,14.10
2019-04-22T23:11:20.833Z,13.73
2019-04-22T23:13:44.253Z,13.77
2019-04-22T23:16:04.403Z,14.37
2019-04-22T23:18:23.613Z,14.23
2019-04-22T23:20:57.259Z,14.43
2019-04-22T23:23:50.062Z,13.83
2019-04-22T23:26:38.004Z,14.20
2019-04-22T23:29:19.771Z,14.10
2019-04-22T23:31:48.347Z,12.57
2019-04-22T23:34:22.709Z,13.23
2019-04-22T23:37:00.772Z,13.30
2019-04-22T23:39:41.624Z,12.87
2019-04-22T23:42:15.938Z,12.37
2019-04-22T23:44:38.045Z,11.53
2019-04-22T23:47:07.269Z,12.00
2019-04-22T23:49:32.481Z,11.57
2019-04-22T23:52:13.260Z,11.70
2019-04-22T23:54:49.046Z,11.27
2019-04-22T23:57:09.026Z,11.23
